Time;durP1;ratioP1;P1;durP2;ratioP2;P2;SDS_P1;SDS_P2;PMS_P1;PMS_P2;Temp;Humidity;BMP_temperature;BMP_pressure;BME280_temperature;BME280_humidity;BME280_pressure;Samples;Min_cycle;Max_cycle;Signal;HPM_P1;HPM_P2
2023/07/30 00:01:40;;;;;;;3.88;3.50;;;;;;;;;;9872051;28;20066;-73
2023/07/30 00:06:33;;;;;;;6.13;3.38;;;;;;;;;;9868986;29;20043;-73
2023/07/30 00:11:25;;;;;;;5.15;3.58;;;;;;;;;;9870313;29;20048;-73
2023/07/30 00:16:16;;;;;;;5.30;3.08;;;;;;;;;;9869629;29;20118;-73
2023/07/30 00:21:09;;;;;;;5.50;3.55;;;;;;;;;;9867649;29;20044;-74
2023/07/30 00:26:00;;;;;;;3.63;3.00;;;;;;;;;;9855430;29;20039;-72
2023/07/30 00:30:52;;;;;;;5.57;3.78;;;;;;;;;;9869518;29;20047;-73
2023/07/30 00:35:45;;;;;;;4.38;3.20;;;;;;;;;;9865286;29;20051;-73
2023/07/30 00:40:41;;;;;;;5.13;3.10;;;;;;;;;;9866537;29;20048;-73
2023/07/30 00:45:34;;;;;;;8.45;3.10;;;;;;;;;;9865843;29;20042;-72
2023/07/30 00:50:25;;;;;;;6.45;3.67;;;;;;;;;;9869970;29;20031;-73
2023/07/30 00:55:18;;;;;;;10.10;4.07;;;;;;;;;;9867610;29;20355;-72
2023/07/30 01:00:10;;;;;;;4.88;4.18;;;;;;;;;;9867815;29;20347;-73
2023/07/30 01:05:06;;;;;;;6.38;4.32;;;;;;;;;;9865637;29;20067;-72
2023/07/30 01:09:58;;;;;;;5.63;3.22;;;;;;;;;;9863562;28;20146;-73
2023/07/30 01:14:50;;;;;;;5.35;3.35;;;;;;;;;;9871749;29;20047;-74
2023/07/30 01:19:43;;;;;;;6.47;2.85;;;;;;;;;;9864278;29;20119;-72
2023/07/30 01:24:36;;;;;;;3.33;2.60;;;;;;;;;;9888252;29;20434;-73
2023/07/30 01:29:32;;;;;;;2.65;1.80;;;;;;;;;;9874841;28;20036;-72
2023/07/30 01:34:27;;;;;;;3.80;1.55;;;;;;;;;;9874109;29;20457;-72
2023/07/30 01:39:20;;;;;;;5.70;1.63;;;;;;;;;;9876209;29;20425;-72
2023/07/30 01:44:14;;;;;;;10.18;1.70;;;;;;;;;;9874834;29;20461;-72
2023/07/30 01:49:06;;;;;;;7.18;1.52;;;;;;;;;;9874156;29;20043;-72
2023/07/30 01:53:58;;;;;;;3.50;1.70;;;;;;;;;;9877084;29;20043;-72
2023/07/30 01:58:50;;;;;;;2.88;1.90;;;;;;;;;;9876802;29;20044;-72
2023/07/30 02:03:42;;;;;;;2.03;1.55;;;;;;;;;;9887929;28;20462;-72
2023/07/30 02:08:34;;;;;;;1.27;1.13;;;;;;;;;;9872381;29;20439;-72
2023/07/30 02:13:25;;;;;;;3.20;1.67;;;;;;;;;;9876214;29;20098;-73
2023/07/30 02:18:18;;;;;;;3.67;1.50;;;;;;;;;;9859689;29;20052;-72
2023/07/30 02:23:10;;;;;;;3.03;1.75;;;;;;;;;;9872430;29;20075;-73
2023/07/30 02:28:02;;;;;;;3.92;1.60;;;;;;;;;;9872874;29;20098;-73
2023/07/30 02:32:54;;;;;;;1.83;1.40;;;;;;;;;;9874683;29;20437;-72
2023/07/30 02:37:46;;;;;;;3.47;1.55;;;;;;;;;;9872227;29;20099;-73
2023/07/30 02:42:37;;;;;;;3.10;1.50;;;;;;;;;;9867813;29;20044;-73
2023/07/30 02:47:29;;;;;;;5.07;1.73;;;;;;;;;;9867378;29;21065;-74
2023/07/30 02:52:21;;;;;;;2.42;1.50;;;;;;;;;;9870997;29;20139;-73
2023/07/30 02:57:13;;;;;;;1.95;1.55;;;;;;;;;;9871076;29;20083;-73
2023/07/30 03:02:05;;;;;;;2.65;1.35;;;;;;;;;;9846232;29;20048;-72
2023/07/30 03:06:57;;;;;;;5.35;1.60;;;;;;;;;;9848369;29;20197;-74
2023/07/30 03:11:49;;;;;;;2.40;1.58;;;;;;;;;;9865528;29;20538;-74
2023/07/30 03:16:41;;;;;;;2.17;1.77;;;;;;;;;;9872632;29;20437;-72
2023/07/30 03:21:34;;;;;;;1.98;1.55;;;;;;;;;;9872367;29;20176;-73
2023/07/30 03:26:32;;;;;;;1.77;1.67;;;;;;;;;;9871572;29;20059;-73
2023/07/30 03:31:28;;;;;;;1.77;1.67;;;;;;;;;;9872990;28;20385;-75
2023/07/30 03:36:20;;;;;;;2.13;1.92;;;;;;;;;;9871476;29;20652;-73
2023/07/30 03:41:12;;;;;;;2.28;2.03;;;;;;;;;;9870776;29;20417;-73
2023/07/30 03:46:04;;;;;;;3.10;2.03;;;;;;;;;;9869489;29;20051;-74
2023/07/30 03:50:56;;;;;;;2.08;1.95;;;;;;;;;;9860472;29;20613;-73
2023/07/30 03:55:48;;;;;;;2.47;1.83;;;;;;;;;;9832139;29;20674;-74
2023/07/30 04:00:40;;;;;;;2.33;2.13;;;;;;;;;;9865381;29;20533;-74
2023/07/30 04:05:32;;;;;;;2.72;2.53;;;;;;;;;;9870823;29;20070;-72
2023/07/30 04:10:24;;;;;;;2.72;2.38;;;;;;;;;;9870620;29;20047;-74
2023/07/30 04:15:16;;;;;;;2.55;2.35;;;;;;;;;;9868819;29;20055;-73
2023/07/30 04:20:11;;;;;;;5.90;3.22;;;;;;;;;;9869152;29;20047;-73
2023/07/30 04:25:04;;;;;;;3.33;2.58;;;;;;;;;;9870280;29;20517;-73
2023/07/30 04:29:57;;;;;;;7.47;4.05;;;;;;;;;;9870152;29;20813;-74
2023/07/30 04:34:49;;;;;;;6.03;2.60;;;;;;;;;;9868593;29;20054;-72
2023/07/30 04:39:41;;;;;;;4.75;2.47;;;;;;;;;;9868094;29;20099;-73
2023/07/30 04:44:33;;;;;;;6.85;3.28;;;;;;;;;;9868509;29;20131;-73
2023/07/30 04:49:33;;;;;;;3.60;2.85;;;;;;;;;;9868229;29;20044;-73
2023/07/30 04:54:25;;;;;;;3.50;2.90;;;;;;;;;;9868209;29;20522;-73
2023/07/30 04:59:17;;;;;;;3.40;2.78;;;;;;;;;;9884674;28;20125;-73
2023/07/30 05:04:09;;;;;;;5.13;2.80;;;;;;;;;;9869831;29;20040;-73
2023/07/30 05:09:01;;;;;;;2.65;2.25;;;;;;;;;;9869471;29;20378;-74
2023/07/30 05:13:53;;;;;;;3.10;2.05;;;;;;;;;;9868352;29;20398;-72
2023/07/30 05:18:45;;;;;;;4.97;2.35;;;;;;;;;;9868360;29;20066;-73
2023/07/30 05:23:37;;;;;;;2.53;2.17;;;;;;;;;;9867901;29;20048;-73
2023/07/30 05:28:29;;;;;;;2.65;2.45;;;;;;;;;;9868499;29;20047;-74
2023/07/30 05:33:21;;;;;;;3.70;2.63;;;;;;;;;;9863590;29;20175;-71
2023/07/30 05:38:13;;;;;;;3.13;2.80;;;;;;;;;;9851250;29;20044;-73
2023/07/30 05:43:04;;;;;;;3.75;3.35;;;;;;;;;;9870841;29;20068;-72
2023/07/30 05:47:56;;;;;;;3.70;2.95;;;;;;;;;;9870336;29;20489;-73
2023/07/30 05:52:48;;;;;;;5.20;2.72;;;;;;;;;;9871055;29;20054;-74
2023/07/30 05:57:40;;;;;;;4.28;3.70;;;;;;;;;;9870023;29;20058;-74
2023/07/30 06:02:32;;;;;;;4.20;3.40;;;;;;;;;;9877552;29;20047;-73
2023/07/30 06:07:24;;;;;;;3.17;2.45;;;;;;;;;;9876959;28;20051;-74
2023/07/30 06:12:16;;;;;;;4.13;2.85;;;;;;;;;;9876175;29;20044;-74
2023/07/30 06:17:08;;;;;;;4.20;2.80;;;;;;;;;;9875860;29;20071;-75
2023/07/30 06:22:00;;;;;;;4.57;2.80;;;;;;;;;;9875626;29;20048;-73
2023/07/30 06:26:51;;;;;;;2.42;2.22;;;;;;;;;;9875364;29;20474;-73
2023/07/30 06:31:43;;;;;;;4.93;2.92;;;;;;;;;;9876042;29;20083;-73
2023/07/30 06:36:35;;;;;;;3.45;2.45;;;;;;;;;;9875150;29;20355;-74
2023/07/30 06:41:28;;;;;;;3.88;2.88;;;;;;;;;;9874872;29;20414;-73
2023/07/30 06:46:19;;;;;;;5.82;2.70;;;;;;;;;;9875559;29;20052;-73
2023/07/30 06:51:13;;;;;;;7.03;3.22;;;;;;;;;;9874831;29;20127;-73
2023/07/30 06:56:05;;;;;;;4.60;3.25;;;;;;;;;;9873993;29;20173;-74
2023/07/30 07:00:57;;;;;;;5.88;2.58;;;;;;;;;;9874790;29;20052;-73
2023/07/30 07:05:55;;;;;;;4.07;2.53;;;;;;;;;;9873980;29;20051;-74
2023/07/30 07:10:47;;;;;;;3.42;3.03;;;;;;;;;;9872419;29;20047;-73
2023/07/30 07:15:39;;;;;;;9.32;3.95;;;;;;;;;;9874420;29;20418;-73
2023/07/30 07:20:31;;;;;;;4.20;3.80;;;;;;;;;;9873038;29;20064;-74
2023/07/30 07:25:24;;;;;;;6.28;3.47;;;;;;;;;;9872929;29;20047;-74
2023/07/30 07:30:16;;;;;;;3.67;3.13;;;;;;;;;;9873708;29;20044;-73
2023/07/30 07:35:08;;;;;;;5.07;3.65;;;;;;;;;;9873642;28;20146;-74
2023/07/30 07:40:00;;;;;;;4.95;3.80;;;;;;;;;;9871632;29;20430;-76
2023/07/30 07:44:52;;;;;;;6.53;3.92;;;;;;;;;;9872640;29;20051;-74
2023/07/30 07:49:44;;;;;;;4.95;3.42;;;;;;;;;;9871642;29;20091;-73
2023/07/30 07:54:35;;;;;;;3.40;3.10;;;;;;;;;;9861555;29;20454;-73
2023/07/30 07:59:27;;;;;;;4.13;3.75;;;;;;;;;;9870311;29;20103;-73
2023/07/30 08:04:21;;;;;;;3.58;3.28;;;;;;;;;;9871885;29;20103;-74
2023/07/30 08:09:13;;;;;;;5.07;4.00;;;;;;;;;;9872258;29;20075;-74
2023/07/30 08:14:05;;;;;;;3.67;3.35;;;;;;;;;;9834513;29;20064;-72
2023/07/30 08:18:57;;;;;;;4.75;4.05;;;;;;;;;;9858635;29;20044;-74
2023/07/30 08:23:49;;;;;;;7.93;3.90;;;;;;;;;;9870877;29;20478;-73
2023/07/30 08:28:40;;;;;;;6.13;3.67;;;;;;;;;;9871164;29;20048;-72
2023/07/30 08:33:32;;;;;;;3.47;3.17;;;;;;;;;;9859150;29;20414;-74
2023/07/30 08:38:25;;;;;;;3.83;3.42;;;;;;;;;;9857740;29;20093;-74
2023/07/30 08:43:18;;;;;;;4.80;3.60;;;;;;;;;;9871648;29;20052;-75
2023/07/30 08:48:10;;;;;;;3.55;3.25;;;;;;;;;;9865401;28;20387;-72
2023/07/30 08:53:03;;;;;;;4.85;3.15;;;;;;;;;;9868009;29;20462;-74
2023/07/30 08:57:56;;;;;;;6.68;3.30;;;;;;;;;;9870665;29;20422;-73
2023/07/30 09:02:52;;;;;;;5.63;3.05;;;;;;;;;;9864733;29;20098;-73
2023/07/30 09:07:44;;;;;;;2.97;2.72;;;;;;;;;;9856636;29;20056;-72
2023/07/30 09:12:36;;;;;;;6.22;3.63;;;;;;;;;;9844826;29;20055;-73
2023/07/30 09:17:28;;;;;;;3.72;3.13;;;;;;;;;;9831729;29;20573;-73
2023/07/30 09:22:40;;;;;;;5.82;2.95;;;;;;;;;;9854787;29;20040;-74
2023/07/30 09:27:33;;;;;;;5.72;2.72;;;;;;;;;;9860265;29;20482;-74
2023/07/30 09:32:35;;;;;;;5.53;3.22;;;;;;;;;;9854225;29;20103;-74
2023/07/30 09:37:27;;;;;;;4.35;2.88;;;;;;;;;;9876399;29;20359;-74
2023/07/30 09:42:19;;;;;;;4.93;2.90;;;;;;;;;;9875896;29;20632;-75
2023/07/30 09:47:11;;;;;;;3.70;3.40;;;;;;;;;;9876833;29;20055;-74
2023/07/30 09:52:05;;;;;;;3.45;2.75;;;;;;;;;;9876994;29;20047;-73
2023/07/30 09:56:57;;;;;;;4.82;2.83;;;;;;;;;;9875415;29;20618;-74
2023/07/30 10:01:49;;;;;;;18.98;4.65;;;;;;;;;;9863337;29;20048;-73
2023/07/30 10:06:46;;;;;;;5.90;2.88;;;;;;;;;;9875062;29;20060;-70
2023/07/30 10:11:39;;;;;;;3.60;2.92;;;;;;;;;;9871380;29;20112;-70
2023/07/30 10:16:31;;;;;;;11.18;4.03;;;;;;;;;;9856446;29;20048;-71
2023/07/30 10:21:25;;;;;;;4.40;3.15;;;;;;;;;;9858548;29;20534;-71
2023/07/30 10:26:27;;;;;;;5.72;2.90;;;;;;;;;;9852167;29;20537;-71
2023/07/30 10:31:19;;;;;;;3.88;3.03;;;;;;;;;;9861055;29;20534;-71
2023/07/30 10:36:12;;;;;;;3.83;2.67;;;;;;;;;;9865347;29;20052;-71
2023/07/30 10:41:12;;;;;;;4.57;3.08;;;;;;;;;;9873367;29;20781;-71
2023/07/30 10:46:05;;;;;;;25.70;3.88;;;;;;;;;;9866524;29;20079;-72
2023/07/30 10:50:58;;;;;;;5.38;3.00;;;;;;;;;;9871422;29;20389;-70
2023/07/30 10:55:50;;;;;;;4.10;3.03;;;;;;;;;;9868287;29;20418;-71
2023/07/30 11:00:42;;;;;;;6.80;2.90;;;;;;;;;;9858762;29;20047;-69
2023/07/30 11:05:33;;;;;;;3.28;2.92;;;;;;;;;;9868733;29;20139;-71
2023/07/30 11:10:25;;;;;;;3.95;2.72;;;;;;;;;;9870991;29;20055;-74
2023/07/30 11:15:17;;;;;;;4.07;2.80;;;;;;;;;;9855815;29;20134;-74
2023/07/30 11:20:26;;;;;;;3.40;2.65;;;;;;;;;;9861365;29;20125;-74
2023/07/30 11:25:19;;;;;;;3.47;3.17;;;;;;;;;;9863216;29;20143;-73
2023/07/30 11:30:11;;;;;;;7.32;2.92;;;;;;;;;;9867201;29;20070;-74
2023/07/30 11:35:04;;;;;;;4.70;2.67;;;;;;;;;;9866214;29;20150;-75
2023/07/30 11:39:56;;;;;;;4.40;3.03;;;;;;;;;;9864725;29;20135;-75
2023/07/30 11:44:49;;;;;;;3.10;2.42;;;;;;;;;;9865186;29;20052;-74
2023/07/30 11:49:41;;;;;;;5.22;3.47;;;;;;;;;;9866728;28;20164;-74
2023/07/30 11:54:33;;;;;;;3.10;2.90;;;;;;;;;;9867719;29;20063;-74
2023/07/30 11:59:25;;;;;;;3.78;2.55;;;;;;;;;;9866207;29;20059;-74
2023/07/30 12:04:17;;;;;;;3.42;2.92;;;;;;;;;;9867534;29;20380;-75
2023/07/30 12:09:21;;;;;;;3.17;2.83;;;;;;;;;;9868431;29;20052;-74
2023/07/30 12:14:13;;;;;;;5.45;2.75;;;;;;;;;;9865444;29;20054;-75
2023/07/30 12:19:05;;;;;;;7.05;2.47;;;;;;;;;;9866310;29;20051;-74
2023/07/30 12:23:56;;;;;;;5.03;3.38;;;;;;;;;;9865850;29;21109;-73
2023/07/30 12:28:48;;;;;;;4.18;2.90;;;;;;;;;;9867341;29;20076;-74
2023/07/30 12:33:40;;;;;;;3.22;2.85;;;;;;;;;;9865405;29;20044;-74
2023/07/30 12:38:32;;;;;;;4.38;2.80;;;;;;;;;;9865020;29;20115;-74
2023/07/30 12:43:24;;;;;;;3.20;2.55;;;;;;;;;;9867432;29;20076;-74
2023/07/30 12:48:16;;;;;;;4.72;2.78;;;;;;;;;;9868404;29;20196;-75
2023/07/30 12:53:08;;;;;;;2.85;2.50;;;;;;;;;;9866403;29;20118;-75
2023/07/30 12:58:00;;;;;;;3.70;2.58;;;;;;;;;;9865392;29;20047;-74
2023/07/30 13:02:55;;;;;;;4.13;3.45;;;;;;;;;;9865833;29;20071;-74
2023/07/30 13:07:47;;;;;;;3.58;2.42;;;;;;;;;;9881255;28;20114;-76
2023/07/30 13:12:40;;;;;;;5.00;2.60;;;;;;;;;;9913834;28;20054;-76
2023/07/30 13:17:32;;;;;;;3.10;2.80;;;;;;;;;;9873503;28;20469;-74
2023/07/30 13:22:24;;;;;;;6.85;2.75;;;;;;;;;;9873659;29;20090;-75
2023/07/30 13:27:17;;;;;;;2.92;2.53;;;;;;;;;;9874580;29;20470;-75
2023/07/30 13:32:09;;;;;;;3.33;3.00;;;;;;;;;;9873555;28;20075;-74
2023/07/30 13:37:01;;;;;;;2.90;2.42;;;;;;;;;;9873053;29;20052;-73
2023/07/30 13:41:53;;;;;;;3.25;2.40;;;;;;;;;;9873586;29;20060;-73
2023/07/30 13:46:45;;;;;;;3.80;2.88;;;;;;;;;;9872999;29;20465;-73
2023/07/30 13:51:37;;;;;;;4.32;2.75;;;;;;;;;;9870505;29;20429;-74
2023/07/30 13:56:29;;;;;;;3.33;2.45;;;;;;;;;;9871023;29;20768;-74
2023/07/30 14:01:21;;;;;;;2.92;2.67;;;;;;;;;;9872246;29;20363;-73
2023/07/30 14:06:13;;;;;;;2.92;2.60;;;;;;;;;;9872661;29;20048;-74
2023/07/30 14:11:05;;;;;;;5.65;2.60;;;;;;;;;;9874282;29;20048;-74
2023/07/30 14:15:57;;;;;;;3.28;2.47;;;;;;;;;;9883002;29;20586;-73
2023/07/30 14:20:49;;;;;;;3.70;2.38;;;;;;;;;;9876047;29;20098;-74
2023/07/30 14:25:42;;;;;;;4.00;2.20;;;;;;;;;;9872214;29;20415;-75
2023/07/30 14:30:35;;;;;;;4.20;2.22;;;;;;;;;;9871913;29;20414;-74
2023/07/30 14:35:27;;;;;;;4.88;2.35;;;;;;;;;;9872365;29;20051;-75
2023/07/30 14:40:20;;;;;;;6.93;1.90;;;;;;;;;;9870275;29;20059;-73
2023/07/30 14:45:12;;;;;;;3.25;2.10;;;;;;;;;;9870142;29;20055;-74
2023/07/30 14:50:04;;;;;;;4.97;2.22;;;;;;;;;;9871259;29;20402;-75
2023/07/30 14:54:56;;;;;;;8.27;2.22;;;;;;;;;;9869537;29;20043;-76
2023/07/30 14:59:48;;;;;;;2.80;2.30;;;;;;;;;;9870933;29;20102;-74
2023/07/30 15:04:41;;;;;;;2.55;2.15;;;;;;;;;;9869270;29;20126;-73
2023/07/30 15:09:34;;;;;;;5.60;1.95;;;;;;;;;;9868481;29;20051;-73
2023/07/30 15:14:27;;;;;;;2.38;2.08;;;;;;;;;;9868736;29;20047;-75
2023/07/30 15:19:19;;;;;;;3.38;2.10;;;;;;;;;;9868845;29;20087;-74
2023/07/30 15:24:11;;;;;;;3.25;2.08;;;;;;;;;;9867695;29;20047;-77
2023/07/30 15:29:03;;;;;;;3.50;1.90;;;;;;;;;;9868736;29;20066;-74
2023/07/30 15:33:55;;;;;;;3.33;1.90;;;;;;;;;;9869841;29;20044;-74
2023/07/30 15:38:51;;;;;;;3.35;1.88;;;;;;;;;;9869257;29;20204;-74
2023/07/30 15:43:43;;;;;;;5.20;1.73;;;;;;;;;;9866992;29;20044;-75
2023/07/30 15:48:35;;;;;;;10.00;2.15;;;;;;;;;;9867320;29;20363;-74
2023/07/30 15:53:27;;;;;;;3.35;2.08;;;;;;;;;;9867705;29;20070;-74
2023/07/30 15:58:20;;;;;;;2.25;1.98;;;;;;;;;;9869689;29;20044;-74
2023/07/30 16:03:11;;;;;;;2.83;2.38;;;;;;;;;;9869259;29;20183;-74
2023/07/30 16:08:05;;;;;;;4.82;2.10;;;;;;;;;;9868923;29;20056;-74
2023/07/30 16:12:58;;;;;;;1.88;1.73;;;;;;;;;;9868424;29;20091;-75
2023/07/30 16:17:50;;;;;;;6.82;2.97;;;;;;;;;;9864520;29;20058;-74
2023/07/30 16:22:43;;;;;;;2.67;2.13;;;;;;;;;;9867258;29;20055;-75
2023/07/30 16:27:35;;;;;;;2.40;1.90;;;;;;;;;;9867691;29;20478;-75
2023/07/30 16:32:27;;;;;;;2.85;2.30;;;;;;;;;;9867031;29;20043;-75
2023/07/30 16:37:19;;;;;;;4.75;2.70;;;;;;;;;;9867441;29;20047;-75
2023/07/30 16:42:11;;;;;;;4.88;2.22;;;;;;;;;;9881033;29;20470;-75
2023/07/30 16:47:03;;;;;;;4.43;2.30;;;;;;;;;;9866437;29;20055;-74
2023/07/30 16:51:55;;;;;;;3.17;1.80;;;;;;;;;;9866352;29;20099;-73
2023/07/30 16:56:47;;;;;;;2.95;1.95;;;;;;;;;;9856809;29;20230;-74
2023/07/30 17:01:39;;;;;;;5.57;2.67;;;;;;;;;;9860916;29;20048;-73
2023/07/30 17:06:31;;;;;;;4.05;2.35;;;;;;;;;;9863520;29;20044;-69
2023/07/30 17:11:22;;;;;;;6.05;3.08;;;;;;;;;;9861891;29;20062;-70
2023/07/30 17:16:16;;;;;;;4.75;2.55;;;;;;;;;;9864461;29;20463;-72
2023/07/30 17:21:09;;;;;;;4.70;2.40;;;;;;;;;;9851622;29;20447;-70
2023/07/30 17:26:00;;;;;;;2.95;2.35;;;;;;;;;;9846522;29;20092;-68
2023/07/30 17:30:53;;;;;;;4.40;2.17;;;;;;;;;;9846944;29;20067;-69
2023/07/30 17:35:45;;;;;;;4.47;2.60;;;;;;;;;;9869599;29;20114;-68
2023/07/30 17:40:37;;;;;;;4.07;2.35;;;;;;;;;;9859011;29;20425;-71
2023/07/30 17:45:29;;;;;;;4.07;2.00;;;;;;;;;;9831099;29;20040;-71
2023/07/30 17:50:21;;;;;;;3.33;2.30;;;;;;;;;;9861043;29;20039;-73
2023/07/30 17:55:13;;;;;;;5.72;2.88;;;;;;;;;;9871697;29;20039;-70
2023/07/30 18:00:06;;;;;;;7.00;2.40;;;;;;;;;;9872900;29;20154;-71
2023/07/30 18:05:03;;;;;;;3.55;2.60;;;;;;;;;;9871983;29;20052;-70
2023/07/30 18:09:55;;;;;;;3.08;2.88;;;;;;;;;;9855839;29;20095;-70
2023/07/30 18:14:46;;;;;;;4.32;2.78;;;;;;;;;;9847176;29;20040;-71
2023/07/30 18:19:38;;;;;;;6.95;3.33;;;;;;;;;;9885580;29;20068;-71
2023/07/30 18:24:30;;;;;;;7.40;3.03;;;;;;;;;;9852009;29;20044;-71
2023/07/30 18:29:22;;;;;;;6.90;3.10;;;;;;;;;;9869271;29;20098;-69
2023/07/30 18:34:14;;;;;;;3.67;2.85;;;;;;;;;;9853202;29;20477;-69
2023/07/30 18:39:06;;;;;;;3.75;3.00;;;;;;;;;;9861820;29;20377;-67
2023/07/30 18:43:58;;;;;;;6.78;4.20;;;;;;;;;;9854164;29;20054;-68
2023/07/30 18:48:50;;;;;;;4.43;2.67;;;;;;;;;;9863653;29;20082;-69
2023/07/30 18:53:41;;;;;;;3.42;3.10;;;;;;;;;;9863779;29;20036;-71
2023/07/30 18:58:33;;;;;;;7.35;3.55;;;;;;;;;;9839818;29;20099;-70
2023/07/30 19:03:25;;;;;;;4.63;3.55;;;;;;;;;;9853463;29;20505;-70
2023/07/30 19:08:19;;;;;;;9.30;4.57;;;;;;;;;;9863071;29;20086;-72
2023/07/30 19:13:11;;;;;;;6.68;3.38;;;;;;;;;;9874538;29;20382;-73
2023/07/30 19:18:03;;;;;;;9.00;3.20;;;;;;;;;;9873874;29;20040;-71
2023/07/30 19:22:55;;;;;;;6.00;3.30;;;;;;;;;;9860306;29;20413;-72
2023/07/30 19:27:47;;;;;;;5.65;3.03;;;;;;;;;;9850894;29;20059;-71
2023/07/30 19:32:39;;;;;;;8.60;3.83;;;;;;;;;;9869836;29;20051;-71
2023/07/30 19:37:30;;;;;;;4.88;3.97;;;;;;;;;;9869031;29;20046;-71
2023/07/30 19:42:22;;;;;;;9.43;4.15;;;;;;;;;;9869010;29;20470;-68
2023/07/30 19:47:17;;;;;;;6.55;3.67;;;;;;;;;;9869811;29;20047;-70
2023/07/30 19:52:09;;;;;;;5.32;3.63;;;;;;;;;;9868691;29;20044;-72
2023/07/30 19:57:01;;;;;;;10.43;4.88;;;;;;;;;;9868949;29;20056;-73
2023/07/30 20:01:54;;;;;;;6.47;4.32;;;;;;;;;;9871487;29;20471;-73
2023/07/30 20:06:46;;;;;;;3.90;3.28;;;;;;;;;;9872272;29;20095;-70
2023/07/30 20:11:39;;;;;;;6.70;3.50;;;;;;;;;;9872467;29;20138;-72
2023/07/30 20:16:30;;;;;;;6.18;3.70;;;;;;;;;;9871168;29;20052;-72
2023/07/30 20:21:22;;;;;;;6.18;3.20;;;;;;;;;;9871434;29;20419;-69
2023/07/30 20:26:16;;;;;;;6.82;3.53;;;;;;;;;;9871929;29;20054;-70
2023/07/30 20:31:08;;;;;;;5.88;3.17;;;;;;;;;;9869562;29;20355;-70
2023/07/30 20:36:00;;;;;;;7.72;4.97;;;;;;;;;;9870681;29;20126;-69
2023/07/30 20:40:52;;;;;;;10.80;3.58;;;;;;;;;;9871780;29;20048;-70
2023/07/30 20:45:44;;;;;;;10.45;5.03;;;;;;;;;;9871186;29;20055;-70
2023/07/30 20:50:36;;;;;;;8.90;4.00;;;;;;;;;;9870389;29;20110;-70
2023/07/30 20:55:28;;;;;;;6.70;3.60;;;;;;;;;;9871329;29;20051;-70
2023/07/30 21:00:20;;;;;;;7.38;4.28;;;;;;;;;;9870792;29;20070;-70
2023/07/30 21:05:12;;;;;;;4.18;3.33;;;;;;;;;;9870410;29;20051;-68
2023/07/30 21:10:05;;;;;;;6.40;3.55;;;;;;;;;;9871062;29;20134;-71
2023/07/30 21:14:57;;;;;;;6.57;3.72;;;;;;;;;;9870398;29;20048;-72
2023/07/30 21:19:49;;;;;;;4.60;3.88;;;;;;;;;;9870151;29;20052;-70
2023/07/30 21:24:41;;;;;;;8.50;3.50;;;;;;;;;;9868611;29;20040;-72
2023/07/30 21:29:33;;;;;;;5.97;3.90;;;;;;;;;;9871339;29;20090;-72
2023/07/30 21:34:25;;;;;;;5.20;4.20;;;;;;;;;;9878211;29;20064;-70
2023/07/30 21:39:16;;;;;;;5.03;3.90;;;;;;;;;;9877118;29;20087;-70
2023/07/30 21:44:08;;;;;;;5.35;3.92;;;;;;;;;;9865419;29;20040;-71
2023/07/30 21:49:00;;;;;;;8.77;3.40;;;;;;;;;;9877909;29;20142;-70
2023/07/30 21:53:52;;;;;;;5.13;3.67;;;;;;;;;;9877017;29;20040;-69
2023/07/30 21:58:44;;;;;;;5.53;3.88;;;;;;;;;;9877177;29;20087;-69
2023/07/30 22:03:35;;;;;;;3.65;3.35;;;;;;;;;;9850642;29;20134;-70
2023/07/30 22:08:27;;;;;;;4.07;3.78;;;;;;;;;;9871264;29;20363;-71
2023/07/30 22:13:19;;;;;;;7.40;3.88;;;;;;;;;;9877656;29;20075;-71
2023/07/30 22:18:11;;;;;;;10.73;3.40;;;;;;;;;;9872828;29;20066;-71
2023/07/30 22:23:03;;;;;;;4.45;3.70;;;;;;;;;;9872048;29;20040;-72
2023/07/30 22:27:56;;;;;;;6.70;4.07;;;;;;;;;;9872894;29;20462;-70
2023/07/30 22:33:00;;;;;;;4.13;3.65;;;;;;;;;;9871735;29;20128;-69
2023/07/30 22:37:52;;;;;;;5.90;3.97;;;;;;;;;;9872321;29;20078;-70
2023/07/30 22:42:44;;;;;;;5.00;4.25;;;;;;;;;;9874245;29;20074;-69
2023/07/30 22:47:36;;;;;;;7.20;3.70;;;;;;;;;;9871979;29;20110;-73
2023/07/30 22:52:28;;;;;;;8.82;3.72;;;;;;;;;;9870327;29;20075;-70
2023/07/30 22:57:20;;;;;;;5.28;3.88;;;;;;;;;;9871934;29;20048;-70
2023/07/30 23:02:12;;;;;;;6.70;4.07;;;;;;;;;;9870394;29;20086;-69
2023/07/30 23:07:04;;;;;;;7.78;4.22;;;;;;;;;;9842595;29;20155;-71
2023/07/30 23:11:57;;;;;;;4.40;3.80;;;;;;;;;;9835206;29;20044;-72
2023/07/30 23:16:49;;;;;;;4.40;3.90;;;;;;;;;;9860753;29;20488;-72
2023/07/30 23:21:41;;;;;;;7.18;3.95;;;;;;;;;;9872115;28;20050;-71
2023/07/30 23:26:33;;;;;;;10.02;3.90;;;;;;;;;;9871372;29;20044;-71
2023/07/30 23:31:25;;;;;;;5.90;4.45;;;;;;;;;;9867357;29;20111;-73
2023/07/30 23:36:18;;;;;;;5.43;4.60;;;;;;;;;;9864051;29;20047;-70
2023/07/30 23:41:10;;;;;;;4.45;4.05;;;;;;;;;;9859192;29;20056;-70
2023/07/30 23:46:02;;;;;;;5.88;4.07;;;;;;;;;;9864572;29;20111;-71
2023/07/30 23:50:54;;;;;;;7.28;4.60;;;;;;;;;;9848607;29;20044;-72
2023/07/30 23:55:56;;;;;;;7.13;4.30;;;;;;;;;;9849691;29;20091;-71
